Time;durP1;ratioP1;P1;durP2;ratioP2;P2;SDS_P1;SDS_P2;PMS_P1;PMS_P2;Temp;Humidity;BMP_temperature;BMP_pressure;BME280_temperature;BME280_humidity;BME280_pressure;Samples;Min_cycle;Max_cycle;Signal;HPM_P1;HPM_P2
2022/04/17 00:00:48;;;;;;;12.10;10.80;;;;;;;18.56;37.38;94898.13;5029050;28;21113;-59
2022/04/17 00:03:16;;;;;;;12.17;10.97;;;;;;;18.61;37.26;94900.66;5029282;28;21241;-58
2022/04/17 00:05:43;;;;;;;13.80;11.63;;;;;;;18.05;38.32;94903.88;5028839;28;20450;-62
2022/04/17 00:08:10;;;;;;;13.23;11.47;;;;;;;18.61;37.18;94906.75;5028909;28;20447;-59
2022/04/17 00:10:37;;;;;;;12.77;11.47;;;;;;;18.41;37.13;94909.91;5028353;28;20992;-59
2022/04/17 00:13:04;;;;;;;14.97;11.47;;;;;;;18.10;38.15;94906.44;5029236;28;20475;-58
2022/04/17 00:15:31;;;;;;;12.37;11.07;;;;;;;17.84;38.69;94894.84;5027786;28;20430;-57
2022/04/17 00:17:58;;;;;;;14.77;10.57;;;;;;;18.21;38.08;94900.56;5028886;28;20470;-55
2022/04/17 00:20:26;;;;;;;12.97;11.10;;;;;;;18.04;38.36;94881.09;5028901;28;20437;-59
2022/04/17 00:22:53;;;;;;;13.33;11.90;;;;;;;18.43;38.06;94899.03;5029011;28;20479;-60
2022/04/17 00:25:20;;;;;;;13.27;11.50;;;;;;;18.73;37.24;94899.00;5028503;28;20432;-59
2022/04/17 00:27:47;;;;;;;14.73;11.23;;;;;;;18.72;36.95;94889.47;5029239;28;20475;-60
2022/04/17 00:30:15;;;;;;;13.50;11.00;;;;;;;17.42;39.77;94890.72;5042751;28;20447;-62
2022/04/17 00:32:43;;;;;;;13.07;11.63;;;;;;;17.74;39.12;94887.91;5052905;28;20469;-59
2022/04/17 00:35:10;;;;;;;14.40;11.43;;;;;;;17.83;39.11;94864.09;5052007;28;20439;-60
2022/04/17 00:37:37;;;;;;;14.47;12.37;;;;;;;18.03;38.60;94859.09;5052621;28;20455;-58
2022/04/17 00:40:07;;;;;;;14.10;12.23;;;;;;;18.38;38.25;94873.34;5052985;28;20435;-59
2022/04/17 00:42:34;;;;;;;15.80;12.40;;;;;;;18.26;38.50;94873.13;5052708;28;20539;-63
2022/04/17 00:45:01;;;;;;;14.50;11.80;;;;;;;17.72;39.21;94876.00;5052252;28;20447;-54
2022/04/17 00:47:28;;;;;;;15.03;12.13;;;;;;;17.80;39.26;94870.00;5051636;28;20877;-61
2022/04/17 00:49:55;;;;;;;12.87;11.50;;;;;;;17.04;41.56;94876.16;5052175;28;20816;-54
2022/04/17 00:52:23;;;;;;;16.90;12.47;;;;;;;16.99;41.80;94874.38;5052464;28;20504;-60
2022/04/17 00:54:52;;;;;;;13.37;11.77;;;;;;;17.40;40.74;94865.59;5052149;28;20525;-59
2022/04/17 00:57:18;;;;;;;16.47;12.47;;;;;;;17.07;41.39;94868.41;5052426;28;20443;-55
2022/04/17 00:59:47;;;;;;;14.70;12.73;;;;;;;17.16;41.07;94865.81;5051685;28;20898;-59
2022/04/17 01:02:14;;;;;;;14.90;12.77;;;;;;;16.56;42.30;94869.66;5052184;28;20582;-59
2022/04/17 01:04:43;;;;;;;14.93;13.40;;;;;;;16.96;42.08;94867.03;5051473;28;20469;-56
2022/04/17 01:07:10;;;;;;;16.33;12.83;;;;;;;16.25;43.23;94866.75;5052703;28;20427;-58
2022/04/17 01:09:38;;;;;;;15.27;12.57;;;;;;;16.25;43.83;94872.03;5051797;28;20451;-62
2022/04/17 01:12:10;;;;;;;16.80;12.90;;;;;;;16.63;42.57;94864.78;5052468;28;20457;-62
2022/04/17 01:14:39;;;;;;;14.93;12.97;;;;;;;16.88;41.96;94865.06;5051673;28;20450;-57
2022/04/17 01:17:06;;;;;;;14.43;12.73;;;;;;;16.56;42.60;94851.94;5051986;28;21024;-56
2022/04/17 01:19:38;;;;;;;16.43;13.27;;;;;;;16.81;42.25;94854.09;5051411;28;20470;-59
2022/04/17 01:22:06;;;;;;;17.47;13.30;;;;;;;16.49;42.59;94835.69;5051934;28;20450;-58
2022/04/17 01:27:20;;;;;;;14.27;12.77;;;;;;;16.67;42.48;94850.69;5051608;28;20516;-56
2022/04/17 01:29:47;;;;;;;14.37;11.97;;;;;;;16.52;42.84;94850.94;5051591;28;20435;-54
2022/04/17 01:32:15;;;;;;;13.70;12.00;;;;;;;17.04;41.51;94850.44;5052022;28;20446;-59
2022/04/17 01:34:42;;;;;;;13.80;12.27;;;;;;;17.05;41.38;94854.69;5051066;28;21179;-59
2022/04/17 01:37:10;;;;;;;15.40;11.50;;;;;;;17.38;40.73;94857.16;5051730;28;20507;-59
2022/04/17 01:39:37;;;;;;;13.80;11.13;;;;;;;16.94;41.08;94858.59;5051207;28;20828;-56
2022/04/17 01:42:04;;;;;;;13.03;10.87;;;;;;;17.01;41.14;94869.56;5050980;28;20549;-61
2022/04/17 01:44:32;;;;;;;14.43;11.97;;;;;;;16.39;41.91;94851.69;5050492;28;20810;-59
2022/04/17 01:47:01;;;;;;;13.83;11.23;;;;;;;16.57;41.85;94842.91;5051861;28;20447;-63
2022/04/17 01:49:29;;;;;;;17.47;11.87;;;;;;;16.46;42.57;94851.31;5050878;28;20470;-57
2022/04/17 01:51:56;;;;;;;14.13;11.33;;;;;;;16.09;43.45;94854.88;5051273;28;20426;-57
2022/04/17 01:54:25;;;;;;;16.50;12.77;;;;;;;15.94;43.66;94845.34;5051141;28;20427;-63
2022/04/17 01:56:52;;;;;;;15.57;12.03;;;;;;;16.75;42.60;94844.69;5051331;28;20492;-60
2022/04/17 01:59:21;;;;;;;13.67;11.30;;;;;;;17.08;41.42;94850.63;5051785;28;20808;-62
2022/04/17 02:01:50;;;;;;;15.13;11.40;;;;;;;16.28;43.02;94862.75;5049872;28;20496;-58
2022/04/17 02:04:17;;;;;;;18.27;11.93;;;;;;;16.59;42.26;94856.63;5051295;28;21237;-57
2022/04/17 02:06:45;;;;;;;13.70;10.60;;;;;;;16.23;43.14;94853.03;5050529;28;20451;-61
2022/04/17 02:09:13;;;;;;;13.63;11.03;;;;;;;15.92;43.72;94867.84;5051325;28;20933;-56
2022/04/17 02:11:42;;;;;;;12.70;10.77;;;;;;;15.79;44.15;94863.28;5050600;28;20545;-61
2022/04/17 02:14:10;;;;;;;13.43;11.17;;;;;;;16.46;42.92;94852.09;5051290;28;20435;-60
2022/04/17 02:16:37;;;;;;;16.87;11.93;;;;;;;16.74;42.09;94842.34;5050514;28;20459;-59
2022/04/17 02:19:04;;;;;;;12.97;11.30;;;;;;;17.11;40.80;94832.31;5050983;28;20546;-57
2022/04/17 02:21:32;;;;;;;19.37;11.13;;;;;;;16.54;42.32;94832.13;5050912;28;20436;-58
2022/04/17 02:24:00;;;;;;;13.23;11.30;;;;;;;16.41;43.05;94828.38;5052191;28;20852;-56
2022/04/17 02:26:28;;;;;;;12.90;11.53;;;;;;;16.80;41.88;94815.50;5050380;28;20529;-62
2022/04/17 02:28:56;;;;;;;14.73;11.83;;;;;;;16.89;41.80;94824.31;5050841;28;20450;-60
2022/04/17 02:31:24;;;;;;;17.43;11.50;;;;;;;16.71;41.75;94827.84;5050213;28;20455;-58
2022/04/17 02:33:59;;;;;;;14.87;11.80;;;;;;;16.79;42.04;94807.81;5049823;28;20451;-57
2022/04/17 02:36:26;;;;;;;13.70;11.63;;;;;;;16.58;42.56;94822.53;5049848;28;20443;-59
2022/04/17 02:38:54;;;;;;;15.07;11.60;;;;;;;16.40;42.74;94824.19;5050983;28;20504;-57
2022/04/17 02:41:22;;;;;;;12.57;11.00;;;;;;;16.63;41.94;94831.16;5050373;28;20852;-61
2022/04/17 02:43:49;;;;;;;13.60;11.47;;;;;;;16.21;43.20;94820.81;5050339;28;20493;-63
2022/04/17 02:47:42;;;;;;;17.40;11.47;;;;;;;16.67;42.34;94820.78;5049639;28;20438;-57
2022/04/17 02:49:03;;;;;;;14.13;11.40;;;;;;;16.85;41.77;94812.75;5050524;28;20445;-56
2022/04/17 02:51:30;;;;;;;13.80;11.40;;;;;;;16.35;42.71;94818.19;5049979;28;20447;-62
2022/04/17 02:53:57;;;;;;;12.97;10.80;;;;;;;16.33;42.92;94813.19;5049909;28;20446;-61
2022/04/17 02:56:24;;;;;;;14.10;11.30;;;;;;;16.25;42.67;94816.53;5049568;28;21087;-56
2022/04/17 02:58:54;;;;;;;11.90;10.70;;;;;;;16.15;43.74;94814.03;5049244;28;20500;-57
2022/04/17 03:06:56;;;;;;;13.97;12.07;;;;;;;16.33;42.52;94810.53;5049547;28;20439;-59
2022/04/17 03:09:23;;;;;;;16.70;11.80;;;;;;;15.87;43.48;94821.16;5049743;28;20443;-57
2022/04/17 03:11:50;;;;;;;13.00;10.97;;;;;;;15.73;44.08;94816.91;5050012;28;20458;-61
2022/04/17 03:14:17;;;;;;;12.97;11.57;;;;;;;15.79;44.26;94798.03;5049936;28;20896;-57
2022/04/17 03:16:44;;;;;;;16.13;12.07;;;;;;;16.08;43.98;94811.00;5048837;28;21005;-60
2022/04/17 03:19:11;;;;;;;13.27;11.70;;;;;;;16.41;42.85;94812.50;5049680;28;20505;-53
2022/04/17 03:21:39;;;;;;;13.67;11.83;;;;;;;16.35;43.36;94818.97;5049340;28;20443;-56
2022/04/17 03:24:06;;;;;;;15.10;12.33;;;;;;;16.39;43.12;94814.66;5049473;28;21132;-62
2022/04/17 03:26:34;;;;;;;15.17;11.93;;;;;;;15.90;44.03;94811.84;5049205;28;21343;-54
2022/04/17 03:29:01;;;;;;;13.93;11.53;;;;;;;16.38;43.45;94818.41;5049990;28;20451;-61
2022/04/17 03:31:28;;;;;;;19.70;12.27;;;;;;;16.34;42.95;94812.13;5048930;28;20530;-56
2022/04/17 03:33:55;;;;;;;14.57;12.13;;;;;;;16.36;43.44;94814.47;5049452;28;20443;-58
2022/04/17 03:36:22;;;;;;;19.93;12.20;;;;;;;16.14;44.20;94817.78;5048925;28;20518;-59
2022/04/17 03:38:50;;;;;;;15.77;11.37;;;;;;;16.70;42.58;94825.47;5049664;28;20438;-60
2022/04/17 03:41:17;;;;;;;12.13;10.93;;;;;;;16.60;42.92;94821.19;5049082;28;20839;-58
2022/04/17 03:43:44;;;;;;;15.67;11.43;;;;;;;16.91;43.47;94821.34;5049265;28;21036;-58
2022/04/17 03:46:11;;;;;;;16.47;12.20;;;;;;;16.79;43.68;94835.09;5048824;28;20878;-62
2022/04/17 03:48:38;;;;;;;16.97;12.57;;;;;;;16.27;44.87;94826.81;5049112;28;20474;-62
2022/04/17 03:51:05;;;;;;;14.90;11.10;;;;;;;16.16;45.90;94832.28;5048737;28;20859;-61
2022/04/17 03:53:32;;;;;;;16.90;12.23;;;;;;;16.67;44.20;94818.94;5049220;28;20449;-60
2022/04/17 03:55:58;;;;;;;16.30;12.73;;;;;;;17.39;43.09;94840.19;5048633;28;20453;-60
2022/04/17 03:58:25;;;;;;;14.80;12.70;;;;;;;17.37;43.89;94839.72;5049230;28;20439;-56
2022/04/17 04:00:52;;;;;;;14.97;12.07;;;;;;;17.28;43.23;94836.97;5048991;28;20465;-61
2022/04/17 04:03:19;;;;;;;12.50;11.20;;;;;;;17.29;43.25;94843.84;5049094;28;20573;-59
2022/04/17 04:05:46;;;;;;;13.83;11.83;;;;;;;17.20;43.37;94835.84;5047862;28;20445;-60
2022/04/17 04:08:13;;;;;;;15.93;10.90;;;;;;;16.89;43.59;94821.66;5049236;28;20493;-55
2022/04/17 04:10:40;;;;;;;12.47;11.03;;;;;;;17.07;44.10;94826.03;5048345;28;20439;-58
2022/04/17 04:13:07;;;;;;;13.50;11.73;;;;;;;17.19;44.80;94838.75;5049191;28;20435;-59
2022/04/17 04:15:34;;;;;;;13.07;11.70;;;;;;;17.12;44.53;94833.88;5048101;28;20454;-56
2022/04/17 04:18:01;;;;;;;13.57;12.17;;;;;;;17.19;44.52;94839.53;5048686;28;20478;-58
2022/04/17 04:20:28;;;;;;;13.30;11.57;;;;;;;17.33;44.30;94844.81;5048568;28;20447;-63
2022/04/17 04:22:56;;;;;;;12.23;10.93;;;;;;;17.11;44.02;94832.31;5048725;28;20526;-56
2022/04/17 04:25:23;;;;;;;14.83;12.30;;;;;;;16.78;45.41;94832.72;5048315;28;20435;-57
2022/04/17 04:30:35;;;;;;;14.73;11.20;;;;;;;17.19;44.65;94838.75;5045508;28;20447;-60
2022/04/17 04:33:02;;;;;;;12.57;10.60;;;;;;;17.23;44.75;94835.22;5049416;28;20446;-61
2022/04/17 04:35:29;;;;;;;10.57;9.37;;;;;;;17.11;44.38;94828.88;5048300;28;20449;-60
2022/04/17 04:37:59;;;;;;;10.87;9.37;;;;;;;16.87;45.33;94844.97;5048578;28;20453;-61
2022/04/17 04:40:28;;;;;;;10.40;9.30;;;;;;;16.70;45.43;94828.91;5047927;28;21005;-55
2022/04/17 04:42:59;;;;;;;12.50;9.57;;;;;;;16.96;45.02;94835.28;5047434;28;20446;-58
2022/04/17 04:48:13;;;;;;;10.83;9.23;;;;;;;17.24;44.40;94830.72;5049038;28;21300;-58
2022/04/17 04:50:40;;;;;;;11.20;10.07;;;;;;;16.99;45.54;94829.38;5049188;28;20470;-62
2022/04/17 04:53:08;;;;;;;11.97;9.67;;;;;;;16.95;45.79;94817.03;5048908;28;20811;-55
2022/04/17 04:55:34;;;;;;;12.73;10.03;;;;;;;17.30;44.75;94829.50;5048215;28;20993;-60
2022/04/17 04:58:02;;;;;;;10.83;9.63;;;;;;;16.23;46.76;94821.31;5048109;28;21066;-62
2022/04/17 05:00:28;;;;;;;10.70;9.47;;;;;;;16.67;46.16;94812.84;5048270;28;20434;-61
2022/04/17 05:02:55;;;;;;;10.57;9.47;;;;;;;16.88;45.79;94825.38;5048571;28;20438;-60
2022/04/17 05:05:22;;;;;;;16.60;10.13;;;;;;;16.94;45.71;94821.53;5047201;28;20453;-58
2022/04/17 05:07:49;;;;;;;9.63;8.73;;;;;;;16.84;46.04;94824.38;5048556;28;20461;-59
2022/04/17 05:10:16;;;;;;;10.47;8.03;;;;;;;17.20;43.88;94813.84;5048211;28;20435;-58
2022/04/17 05:12:43;;;;;;;9.80;8.33;;;;;;;17.11;45.02;94811.13;5048677;28;20435;-63
2022/04/17 05:15:11;;;;;;;9.23;8.07;;;;;;;17.20;44.54;94827.88;5047294;28;20447;-57
2022/04/17 05:17:38;;;;;;;9.10;7.90;;;;;;;17.17;44.44;94811.78;5050075;28;20495;-61
2022/04/17 05:20:06;;;;;;;8.97;8.07;;;;;;;17.26;44.21;94828.56;5051852;28;20458;-59
2022/04/17 05:22:33;;;;;;;8.83;7.93;;;;;;;17.45;44.23;94825.72;5051500;28;20443;-59
2022/04/17 05:25:00;;;;;;;9.07;8.17;;;;;;;17.43;44.24;94822.59;5051501;28;20474;-59
2022/04/17 05:27:27;;;;;;;9.20;8.17;;;;;;;17.56;45.06;94819.16;5051867;28;20450;-66
2022/04/17 05:29:55;;;;;;;9.33;8.33;;;;;;;17.37;44.20;94818.53;5051715;28;20492;-60
2022/04/17 05:32:22;;;;;;;8.87;7.60;;;;;;;17.23;44.64;94807.94;5052107;28;20445;-63
2022/04/17 05:34:49;;;;;;;16.33;7.10;;;;;;;17.24;43.84;94825.41;5051628;28;20873;-63
2022/04/17 05:37:16;;;;;;;7.63;6.83;;;;;;;16.60;45.26;94815.91;5052198;28;20490;-56
2022/04/17 05:39:43;;;;;;;8.57;7.10;;;;;;;17.09;44.53;94823.88;5051305;28;20431;-58
2022/04/17 05:42:10;;;;;;;7.03;6.23;;;;;;;17.26;43.65;94825.91;5051068;28;20530;-65
2022/04/17 05:44:43;;;;;;;8.70;6.93;;;;;;;17.29;44.34;94821.88;5051401;28;20577;-58
2022/04/17 05:47:11;;;;;;;9.07;6.70;;;;;;;17.27;44.47;94824.03;5051723;28;20815;-58
2022/04/17 05:49:38;;;;;;;7.23;6.53;;;;;;;17.36;44.43;94823.03;5050580;28;20439;-64
2022/04/17 05:52:05;;;;;;;8.67;7.03;;;;;;;17.42;44.23;94821.03;5051419;28;20454;-62
2022/04/17 05:54:32;;;;;;;7.30;6.60;;;;;;;17.65;43.83;94827.94;5051176;28;20987;-62
2022/04/17 05:57:00;;;;;;;7.27;6.57;;;;;;;17.31;44.29;94825.00;5051517;28;20441;-55
2022/04/17 05:59:27;;;;;;;7.73;6.93;;;;;;;16.56;46.04;94825.50;5050951;28;20435;-58
2022/04/17 06:01:54;;;;;;;8.67;7.80;;;;;;;17.11;44.70;94824.38;5051439;28;20438;-55
2022/04/17 06:04:21;;;;;;;8.30;7.40;;;;;;;16.87;45.42;94815.88;5050883;28;20818;-56
2022/04/17 06:06:48;;;;;;;8.60;7.37;;;;;;;15.73;47.83;94815.03;5050473;28;20586;-55
2022/04/17 06:09:15;;;;;;;8.93;7.90;;;;;;;16.50;46.95;94810.78;5051054;28;20508;-61
2022/04/17 06:11:42;;;;;;;8.90;8.00;;;;;;;16.28;46.90;94813.28;5050265;28;20439;-59
2022/04/17 06:14:10;;;;;;;8.77;7.87;;;;;;;16.75;46.45;94812.94;5050832;28;20530;-60
2022/04/17 06:16:37;;;;;;;9.03;7.83;;;;;;;16.93;46.70;94812.03;5050408;28;20447;-55
2022/04/17 06:19:05;;;;;;;9.63;8.63;;;;;;;16.80;46.46;94804.13;5051243;28;20504;-62
2022/04/17 06:21:38;;;;;;;8.73;7.83;;;;;;;16.53;46.61;94810.19;5050626;28;20987;-62
2022/04/17 06:24:05;;;;;;;8.53;7.63;;;;;;;16.41;45.71;94801.16;5051030;28;20475;-60
2022/04/17 06:26:33;;;;;;;9.00;8.10;;;;;;;16.56;46.82;94806.97;5037160;28;20448;-62
2022/04/17 06:29:03;;;;;;;10.60;8.33;;;;;;;16.93;46.20;94804.09;5029388;28;20440;-59
2022/04/17 06:31:30;;;;;;;9.73;8.67;;;;;;;16.74;47.66;94805.28;5029230;28;20482;-62
2022/04/17 06:33:57;;;;;;;10.47;8.80;;;;;;;16.73;47.09;94804.50;5030400;28;20444;-58
2022/04/17 06:36:25;;;;;;;11.43;8.70;;;;;;;16.81;46.47;94806.47;5029220;28;20475;-58
2022/04/17 06:38:52;;;;;;;11.10;9.10;;;;;;;16.89;46.17;94808.44;5029825;28;20448;-59
2022/04/17 06:41:19;;;;;;;10.60;9.00;;;;;;;16.78;46.50;94807.06;5029168;28;20440;-62
2022/04/17 06:43:50;;;;;;;9.40;8.50;;;;;;;17.03;46.59;94808.38;5028580;28;20480;-57
2022/04/17 06:46:17;;;;;;;8.90;8.00;;;;;;;16.89;45.52;94799.69;5029072;28;20825;-65
2022/04/17 06:48:45;;;;;;;11.23;8.77;;;;;;;16.50;46.49;94804.69;5029683;28;20531;-58
2022/04/17 06:51:12;;;;;;;11.57;9.20;;;;;;;17.06;46.17;94813.09;5029511;28;20436;-59
2022/04/17 06:53:39;;;;;;;9.70;8.70;;;;;;;17.09;45.98;94817.78;5030431;28;20444;-59
2022/04/17 06:56:12;;;;;;;9.73;8.77;;;;;;;17.20;46.13;94821.78;5030146;28;20484;-60
2022/04/17 06:58:39;;;;;;;9.83;8.60;;;;;;;16.71;47.23;94806.69;5037056;28;20443;-65
2022/04/17 07:01:06;;;;;;;8.63;7.83;;;;;;;16.67;47.42;94812.84;5049835;28;20438;-58
2022/04/17 07:03:33;;;;;;;10.50;7.97;;;;;;;16.71;47.23;94809.34;5050411;28;20512;-58
2022/04/17 07:06:00;;;;;;;8.90;7.90;;;;;;;16.83;48.31;94809.59;5049488;28;20446;-67
2022/04/17 07:08:28;;;;;;;9.60;7.20;;;;;;;17.18;46.47;94814.16;5050571;28;20439;-68
2022/04/17 07:10:55;;;;;;;8.80;7.83;;;;;;;16.38;48.38;94818.41;5049887;28;20458;-59
2022/04/17 07:13:23;;;;;;;8.20;7.13;;;;;;;16.80;46.46;94818.13;5049874;28;20832;-61
2022/04/17 07:15:51;;;;;;;7.87;6.70;;;;;;;16.21;47.44;94823.47;5049412;28;20472;-65
2022/04/17 07:18:18;;;;;;;14.53;7.57;;;;;;;16.13;47.99;94810.91;5049588;28;20473;-60
2022/04/17 07:20:45;;;;;;;9.83;7.37;;;;;;;16.42;48.12;94814.09;5049199;28;20450;-63
2022/04/17 07:23:14;;;;;;;43.20;29.97;;;;;;;16.94;47.00;94810.16;5049859;28;20443;-55
2022/04/17 07:25:44;;;;;;;107.77;82.73;;;;;;;16.88;46.66;94822.72;5049221;28;20482;-64
2022/04/17 07:28:12;;;;;;;63.80;49.23;;;;;;;16.76;47.61;94819.81;5049723;28;20443;-60
2022/04/17 07:30:43;;;;;;;9.87;8.17;;;;;;;16.65;47.71;94817.66;5049152;28;20985;-61
2022/04/17 07:33:09;;;;;;;7.77;6.83;;;;;;;16.02;48.55;94830.69;5049712;28;20500;-59
2022/04/17 07:35:36;;;;;;;9.83;7.70;;;;;;;16.65;47.66;94822.94;5049515;28;20451;-58
2022/04/17 07:38:04;;;;;;;8.27;7.43;;;;;;;16.45;48.12;94823.28;5049268;28;21171;-64
2022/04/17 07:40:34;;;;;;;8.40;6.80;;;;;;;16.34;48.04;94821.91;5048508;28;20976;-61
2022/04/17 07:43:03;;;;;;;9.00;7.40;;;;;;;16.48;47.32;94820.88;5049555;28;20446;-63
2022/04/17 07:45:31;;;;;;;8.47;7.10;;;;;;;16.62;47.73;94829.63;5048654;28;20475;-64
2022/04/17 07:47:59;;;;;;;8.53;7.07;;;;;;;16.48;47.83;94818.22;5049179;28;20434;-65
2022/04/17 07:50:29;;;;;;;8.17;7.33;;;;;;;16.39;48.60;94822.59;5049284;28;20438;-59
2022/04/17 07:52:58;;;;;;;8.17;7.00;;;;;;;16.52;48.76;94813.91;5049746;28;20930;-68
2022/04/17 07:55:24;;;;;;;11.03;8.03;;;;;;;16.44;48.60;94813.81;5048983;28;20435;-64
2022/04/17 08:00:33;;;;;;;23.00;18.43;;;;;;;16.45;47.91;94808.22;5048658;28;20461;-63
2022/04/17 08:03:20;;;;;;;37.70;31.13;;;;;;;16.37;49.42;94800.94;5033016;28;20440;-60
2022/04/17 08:05:49;;;;;;;59.27;48.93;;;;;;;16.98;47.75;94801.34;5040497;28;20581;-60
2022/04/17 08:08:16;;;;;;;24.77;17.83;;;;;;;17.15;47.30;94800.72;5049348;28;20458;-59
2022/04/17 08:10:44;;;;;;;21.23;17.17;;;;;;;16.31;49.39;94790.78;5048982;28;20447;-63
2022/04/17 08:13:11;;;;;;;42.37;34.90;;;;;;;16.90;48.58;94801.25;5049386;28;20439;-63
2022/04/17 08:15:38;;;;;;;10.17;8.67;;;;;;;17.47;47.22;94805.03;5048539;28;20450;-63
2022/04/17 08:18:05;;;;;;;8.23;6.83;;;;;;;17.18;47.39;94802.78;5048561;28;20467;-64
2022/04/17 08:20:31;;;;;;;5.83;5.20;;;;;;;17.17;47.23;94801.97;5048696;28;20450;-65
2022/04/17 08:22:58;;;;;;;8.30;6.50;;;;;;;17.43;46.28;94794.25;5048915;28;20449;-68
2022/04/17 08:25:25;;;;;;;6.53;5.93;;;;;;;16.86;47.56;94795.78;5034675;28;20468;-58
2022/04/17 08:27:55;;;;;;;7.27;6.50;;;;;;;17.10;47.43;94798.97;5029039;28;20860;-55
2022/04/17 08:30:29;;;;;;;8.50;6.67;;;;;;;16.83;48.00;94799.00;5043879;28;20455;-55
2022/04/17 08:32:57;;;;;;;7.33;6.57;;;;;;;16.12;49.35;94799.56;5048514;28;20447;-58
2022/04/17 08:35:24;;;;;;;9.07;6.57;;;;;;;16.38;49.52;94799.88;5034324;28;20466;-59
2022/04/17 08:38:10;;;;;;;242.77;169.23;;;;;;;16.86;47.81;94797.66;5028999;28;20443;-56
2022/04/17 08:40:39;;;;;;;64.13;52.70;;;;;;;17.18;48.10;94798.28;5028966;28;20452;-59
2022/04/17 08:43:09;;;;;;;7.93;6.40;;;;;;;17.64;45.23;94798.03;5029086;28;20493;-56
2022/04/17 08:45:38;;;;;;;6.37;5.77;;;;;;;17.63;45.38;94790.38;5027783;28;21080;-58
2022/04/17 08:48:05;;;;;;;7.43;6.73;;;;;;;16.51;48.98;94801.00;5028720;28;20444;-55
2022/04/17 08:50:39;;;;;;;7.73;6.97;;;;;;;16.63;49.30;94801.28;5028223;28;20440;-57
2022/04/17 08:53:07;;;;;;;7.57;6.87;;;;;;;16.72;48.65;94792.34;5031379;28;20435;-58
2022/04/17 08:55:34;;;;;;;7.90;6.93;;;;;;;15.96;50.21;94805.41;5032588;28;21036;-56
2022/04/17 08:58:01;;;;;;;7.33;6.63;;;;;;;16.46;48.74;94804.47;5032634;28;20493;-57
2022/04/17 09:00:28;;;;;;;8.63;7.63;;;;;;;16.65;47.77;94802.56;5031782;28;20436;-55
2022/04/17 09:02:55;;;;;;;9.77;7.27;;;;;;;16.87;48.02;94797.34;5032778;28;20818;-58
2022/04/17 09:05:22;;;;;;;8.90;7.43;;;;;;;17.38;47.71;94804.19;5033310;28;20863;-57
2022/04/17 09:07:53;;;;;;;7.27;6.53;;;;;;;17.42;46.64;94794.56;5033332;28;20865;-59
2022/04/17 09:10:29;;;;;;;8.70;7.80;;;;;;;16.94;47.50;94795.06;5032122;28;20486;-58
2022/04/17 09:12:59;;;;;;;10.30;7.10;;;;;;;16.92;48.13;94789.28;5032416;28;20442;-59
2022/04/17 09:15:29;;;;;;;8.83;7.00;;;;;;;17.28;47.61;94791.19;5031823;28;20434;-53
2022/04/17 09:17:56;;;;;;;6.47;5.87;;;;;;;16.73;48.66;94788.63;5031989;28;20485;-55
2022/04/17 09:20:25;;;;;;;5.60;4.80;;;;;;;16.94;47.47;94787.13;5032326;28;20448;-55
2022/04/17 09:22:54;;;;;;;6.67;5.97;;;;;;;16.25;50.05;94784.78;5032251;28;20855;-55
2022/04/17 09:25:28;;;;;;;6.67;5.73;;;;;;;16.90;47.76;94783.50;5031875;28;20471;-55
2022/04/17 09:28:01;;;;;;;6.13;5.50;;;;;;;16.94;48.47;94773.91;5032055;28;20447;-58
2022/04/17 09:30:29;;;;;;;6.23;5.53;;;;;;;17.24;46.69;94767.16;5030492;28;20494;-60
2022/04/17 09:32:57;;;;;;;6.13;5.50;;;;;;;16.72;48.73;94773.06;5032128;28;20826;-54
2022/04/17 09:35:25;;;;;;;6.37;5.50;;;;;;;17.47;46.33;94749.41;5031563;28;20978;-57
2022/04/17 09:38:00;;;;;;;6.47;5.57;;;;;;;17.21;47.31;94751.84;5030084;28;20444;-53
2022/04/17 09:40:28;;;;;;;4.50;4.10;;;;;;;17.11;46.23;94749.44;5031925;28;20502;-59
2022/04/17 09:43:16;;;;;;;5.27;4.50;;;;;;;17.63;45.29;94737.38;5031952;28;20493;-55
2022/04/17 09:46:08;;;;;;;7.13;5.17;;;;;;;17.22;46.45;94738.31;5031247;28;20495;-54
2022/04/17 09:48:45;;;;;;;6.27;5.67;;;;;;;17.12;48.28;94741.19;5031082;28;21045;-55
2022/04/17 09:51:19;;;;;;;5.50;4.83;;;;;;;17.66;45.33;94736.78;5031299;28;21096;-55
2022/04/17 09:54:04;;;;;;;5.03;4.40;;;;;;;17.70;44.83;94743.06;5031108;28;20535;-54
2022/04/17 09:56:46;;;;;;;5.20;4.70;;;;;;;17.35;46.14;94736.72;5031192;28;20483;-53
2022/04/17 09:59:24;;;;;;;5.90;4.70;;;;;;;17.50;45.03;94748.84;5031200;28;20446;-60
2022/04/17 10:01:53;;;;;;;6.67;4.83;;;;;;;17.44;45.07;94731.47;5031555;28;20455;-55
2022/04/17 10:04:24;;;;;;;5.90;4.80;;;;;;;17.28;45.68;94730.28;5030706;28;20502;-57
2022/04/17 10:06:53;;;;;;;7.27;6.57;;;;;;;17.50;45.23;94733.72;5031513;28;20458;-53
2022/04/17 10:09:21;;;;;;;8.77;7.10;;;;;;;17.64;44.42;94728.34;5030440;28;20451;-59
2022/04/17 10:11:51;;;;;;;8.63;7.73;;;;;;;17.53;45.29;94727.84;5030666;28;20978;-57
2022/04/17 10:14:19;;;;;;;10.10;9.10;;;;;;;17.69;46.80;94725.56;5031449;28;20436;-54
2022/04/17 10:16:48;;;;;;;6.63;5.93;;;;;;;17.92;45.34;94724.44;5029173;28;20919;-53
2022/04/17 10:19:17;;;;;;;5.43;4.80;;;;;;;18.02;44.34;94714.38;5031030;28;20997;-54
2022/04/17 10:21:46;;;;;;;7.03;6.00;;;;;;;18.19;45.66;94708.38;5031080;28;20505;-57
2022/04/17 10:24:15;;;;;;;8.03;7.23;;;;;;;17.99;45.93;94687.69;5030362;28;20449;-53
2022/04/17 10:26:47;;;;;;;8.80;6.73;;;;;;;17.67;48.33;94706.53;5030151;28;20574;-53
2022/04/17 10:29:30;;;;;;;8.57;7.67;;;;;;;17.63;46.81;94721.47;5028389;28;20535;-58
2022/04/17 10:32:43;;;;;;;7.13;5.70;;;;;;;18.01;47.02;94714.69;5028187;28;20447;-57
2022/04/17 10:35:51;;;;;;;9.67;8.00;;;;;;;17.34;49.35;94723.75;5028078;28;20506;-55
2022/04/17 10:38:25;;;;;;;3.90;2.93;;;;;;;17.24;45.53;94725.56;4985763;28;20886;-59
2022/04/17 10:40:56;;;;;;;3.40;2.23;;;;;;;17.01;46.31;94716.03;5022881;28;20452;-56
2022/04/17 10:43:24;;;;;;;4.53;3.17;;;;;;;16.83;45.63;94719.63;5028667;28;20971;-53
2022/04/17 10:46:07;;;;;;;3.90;2.50;;;;;;;16.59;46.55;94708.50;5030817;28;20894;-55
2022/04/17 10:48:43;;;;;;;5.43;2.80;;;;;;;16.26;46.55;94704.38;5031052;28;20452;-50
2022/04/17 10:51:20;;;;;;;4.80;3.17;;;;;;;16.78;46.36;94706.50;5030885;28;20484;-57
2022/04/17 10:54:06;;;;;;;3.33;2.30;;;;;;;17.16;45.30;94705.13;5030625;28;20449;-57
2022/04/17 10:56:58;;;;;;;4.10;2.30;;;;;;;16.77;45.40;94699.63;5030021;28;20446;-56
2022/04/17 10:59:33;;;;;;;6.23;3.23;;;;;;;17.03;45.48;94700.66;5029963;28;20874;-55
2022/04/17 11:02:07;;;;;;;4.37;2.57;;;;;;;16.81;44.91;94692.69;5030206;28;20534;-56
2022/04/17 11:04:37;;;;;;;96.70;69.37;;;;;;;17.06;46.27;94696.63;5030160;28;20451;-51
2022/04/17 11:07:04;;;;;;;35.67;28.70;;;;;;;16.98;45.26;94695.47;5030041;28;20436;-49
2022/04/17 11:09:41;;;;;;;8.27;5.70;;;;;;;17.07;45.70;94687.59;5029344;28;20476;-54
2022/04/17 11:12:24;;;;;;;6.10;3.53;;;;;;;16.88;44.60;94690.41;5029699;28;20436;-55
2022/04/17 11:15:17;;;;;;;3.73;2.53;;;;;;;16.78;45.52;94680.06;5029881;28;20451;-55
2022/04/17 11:17:46;;;;;;;5.07;2.67;;;;;;;16.69;44.74;94673.91;5030069;28;20483;-58
2022/04/17 11:20:14;;;;;;;5.53;3.70;;;;;;;16.62;45.01;94697.34;5029477;28;20448;-54
2022/04/17 11:22:41;;;;;;;4.40;3.17;;;;;;;16.74;44.52;94689.66;5029478;28;20448;-55
2022/04/17 11:25:11;;;;;;;6.23;4.10;;;;;;;16.82;45.08;94696.13;5028731;28;20471;-59
2022/04/17 11:27:51;;;;;;;5.43;3.77;;;;;;;16.81;44.87;94711.19;5029955;28;20464;-52
2022/04/17 11:30:38;;;;;;;57.07;47.03;;;;;;;17.17;44.15;94709.31;5029299;28;20855;-57
2022/04/17 11:33:06;;;;;;;46.73;37.77;;;;;;;16.57;45.12;94710.66;5029994;28;20505;-53
2022/04/17 11:35:35;;;;;;;21.87;16.83;;;;;;;16.17;46.29;94706.94;5028810;28;20459;-58
2022/04/17 11:38:05;;;;;;;3.23;2.70;;;;;;;16.52;45.21;94712.63;5028266;28;20978;-56
2022/04/17 11:40:37;;;;;;;4.97;2.57;;;;;;;16.58;45.13;94704.31;5028341;28;20498;-58
2022/04/17 11:43:09;;;;;;;4.20;2.70;;;;;;;16.36;45.99;94709.50;5029398;28;20451;-56
2022/04/17 11:45:36;;;;;;;4.70;3.23;;;;;;;16.88;44.92;94695.69;5027907;28;20479;-57
2022/04/17 11:48:07;;;;;;;6.93;3.83;;;;;;;17.05;45.22;94692.41;5028346;28;20966;-59
2022/04/17 11:50:34;;;;;;;7.03;4.37;;;;;;;17.36;44.22;94695.09;5028061;28;21238;-51